32.9°F
Current conditions from King Hill
Updated every 5 minutes
 
  Thursday April 24, 2014

Observations for Westford

Westford

44° 37' 39"N, 73° 02' 29"W, Elevation 850 ft.
Eastern Time

Hourly observations for the last 72 hours

Date Time Temperature (F) Humi-
dity

(%)
Wind
(mph)
Pressure Rain (in)
Air Dew 6 Hour 1 Hr 3 Hr 6 Hr Day
Alt
(in)
Sea
Level

(mb)
Max Min
24 07:00 32.3 21.9 65 NW 5 G 16 29.81 1009.5 0.00
24 06:00 32.3 22.2 66 NW 4 G 17 29.79 1008.7 0.00
24 05:00 31.9 21.8 66 NW 2 G 11 29.77 1008.3 0.00
24 04:00 33.2 22.0 63 NW 5 G 18 29.76 1008.0 0.00
24 03:00 34.1 23.9 66 NNW 3 G 19 29.76 1007.8 0.00
24 02:00 35.5 24.2 41.4 35.5 63 NW 0 G 15 29.75 1007.3 0.00
24 01:00 37.9 25.3 60 NNW 6 G 14 29.75 1007.4 0.00
24 00:00 39.3 27.8 63 NNW 1 G 11 29.75 1007.3 0.05
23 23:00 40.1 28.5 63 NNW 0 G 15 29.73 1006.8 0.05
23 22:00 40.9 30.0 65 NW 1 G 16 29.72 1006.3 0.05
23 21:00 41.2 31.8 69 NNW 2 G 16 29.70 1005.8 0.05
23 20:00 41.0 32.7 45.5 41.0 72 NW 2 G 14 29.68 1005.1 0.05
23 19:00 41.7 33.3 72 NNW 5 G 16 29.66 1004.5 0.05
23 18:00 42.7 34.0 71 NW 9 G 19 29.64 1003.8 0.05
23 17:00 43.5 35.1 72 NW 4 G 18 29.62 1003.1 0.05
23 16:00 44.1 35.3 71 NW 6 G 23 29.60 1002.5 0.05
23 15:00 45.2 36.0 70 WNW 13 G 23 29.58 1001.7 0.05
23 14:00 44.3 37.2 44.6 39.6 76 NW 7 G 16 29.57 1001.3 0.05
23 13:00 43.7 39.2 84 N 0 G 11 29.56 1001.1 0.05
23 12:00 41.8 37.6 85 NW 4 G 18 29.56 1001.2 0.05
23 11:00 41.5 38.2 88 NNW 3 G 17 29.56 1001.2 0.05
23 10:00 40.3 37.9 91 NNW 4 G 18 29.55 1000.8 0.05
23 09:00 39.7 38.4 95 NNW 3 G 14 29.55 1000.5 0.05
23 08:00 39.7 38.9 42.1 39.5 97 WNW 0 G 11 29.52 999.7 0.02 0.03 0.05
23 07:00 39.6 39.1 98 NW 1 G 11 29.50 999.2 0.01 0.05
23 06:00 39.7 39.2 98 N 0 G 11 29.48 998.5 0.01 0.04
23 05:00 40.2 39.7 98 NW 3 G 13 29.46 997.8 0.01 0.03
23 04:00 41.7 41.2 98 NW 3 G 11 29.45 997.4 0.01 0.03
23 03:00 42.1 41.3 97 Calm 29.44 997.0 0.02
23 02:00 42.0 41.2 50.8 42.0 97 NW 3 G 11 29.44 996.9 0.02 0.02 0.03 0.02
23 01:00 43.0 42.2 97 WNW 3 G 11 29.42 996.4 0.00
23 00:00 48.6 46.7 93 NW 5 G 11 29.41 996.1 0.17
22 23:00 50.0 47.5 91 SSW 1 G 6 29.41 996.0 0.01 0.17
22 22:00 50.3 48.4 93 W 5 G 10 29.41 995.9 0.01 0.17
22 21:00 49.6 48.2 95 Calm 29.41 995.8 0.16
22 20:00 50.8 49.1 58.8 50.8 94 W 6 G 11 29.39 995.3 0.08 0.16 0.16
22 19:00 53.7 52.3 95 SSW 5 G 11 29.37 994.5 0.02 0.16
22 18:00 52.8 51.1 94 S 0 G 9 29.37 994.7 0.06 0.14
22 17:00 52.8 50.2 91 SSW 3 G 6 29.37 994.7 0.01 0.08 0.08
22 16:00 53.5 50.3 89 SW 2 G 8 29.39 995.4 0.05 0.07
22 15:00 54.5 49.1 82 S 3 G 14 29.40 995.6 0.02 0.02
22 14:00 58.4 45.9 62.6 57.3 63 S 2 G 14 29.40 995.5 0.00
22 13:00 60.9 33.1 35 S 2 G 7 29.43 996.6 0.00
22 12:00 62.5 33.0 33 SSW 4 G 12 29.47 998.0 0.00
22 11:00 60.7 31.4 33 S 3 G 16 29.49 998.6 0.00
22 10:00 61.1 27.8 28 S 7 G 13 29.51 999.3 0.00
22 09:00 58.7 27.4 30 SSW 5 G 13 29.53 999.9 0.00
22 08:00 57.3 29.2 57.3 50.1 34 S 2 G 10 29.54 1000.5 0.00
22 07:00 57.2 29.8 35 S 1 G 6 29.56 1001.1 0.00
22 06:00 53.8 35.1 49 S 0 G 3 29.57 1001.5 0.00
22 05:00 53.5 34.8 49 S 0 G 6 29.60 1002.4 0.00
22 04:00 51.2 38.6 62 E 0 G 1 29.62 1003.1 0.00
22 03:00 54.1 38.8 56 E 0 G 1 29.64 1003.9 0.00
22 02:00 55.1 39.7 60.3 53.5 56 ENE 0 G 2 29.68 1005.0 0.00
22 01:00 54.9 39.0 55 Calm 29.72 1006.4 0.00
22 00:00 55.5 40.1 56 Calm 29.72 1006.4 0.00
21 23:00 55.9 39.5 54 Calm 29.73 1006.9 0.00
21 22:00 57.3 40.3 53 Calm 29.75 1007.6 0.00
21 21:00 58.6 37.9 46 Calm 29.77 1008.1 0.00
21 20:00 59.3 38.0 67.4 59.3 45 Calm 29.78 1008.4 0.00
21 19:00 61.0 37.8 42 Calm 29.78 1008.6 0.00
21 18:00 64.5 37.7 37 W 0 G 3 29.80 1009.0 0.00
21 17:00 66.0 36.1 33 SSW 0 G 4 29.80 1009.1 0.00
21 16:00 66.1 35.4 32 SW 2 G 10 29.82 1009.9 0.00
21 15:00 66.3 34.8 31 S 4 G 12 29.85 1010.9 0.00
21 14:00 64.3 33.8 66.0 47.7 32 SW 4 G 9 29.89 1012.2 0.00
21 13:00 63.8 33.4 32 SSW 6 G 14 29.92 1013.1 0.00
21 12:00 60.3 31.8 34 SSW 7 G 19 29.94 1013.9 0.00
21 11:00 54.5 30.7 40 SSW 9 G 17 29.97 1014.9 0.00
21 10:00 52.6 29.6 41 SW 9 G 24 30.00 1016.1 0.00
21 09:00 47.9 30.2 50 SSW 7 G 21 30.02 1016.6 0.00
21 08:00 49.5 28.5 51.5 48.1 44 SSW 5 G 16 30.03 1017.0 0.00

Data generated by WxSolution Version 1.8.7.2, Build 2014.02.15.


 
 
Current Radar Loop:

Copyright © WestfordWeather.net 2007-2014. All rights reserved.